createdAt,value
2022-10-13T00:00:45.337Z,13.90
2022-10-13T00:03:11.942Z,11.32
2022-10-13T00:05:43.351Z,10.47
2022-10-13T00:08:10.771Z,10.05
2022-10-13T00:10:38.908Z,10.50
2022-10-13T00:13:05.583Z,10.35
2022-10-13T00:15:32.060Z,12.43
2022-10-13T00:17:58.526Z,10.70
2022-10-13T00:20:24.987Z,9.48
2022-10-13T00:22:51.425Z,10.23
2022-10-13T00:25:17.966Z,12.77
2022-10-13T00:27:44.435Z,11.82
2022-10-13T00:30:11.306Z,11.80
2022-10-13T00:32:37.734Z,13.45
2022-10-13T00:35:04.483Z,13.23
2022-10-13T00:37:30.950Z,13.07
2022-10-13T00:39:57.399Z,16.52
2022-10-13T00:42:26.283Z,11.73
2022-10-13T00:44:58.667Z,11.88
2022-10-13T00:47:26.947Z,10.07
2022-10-13T00:49:55.195Z,10.80
2022-10-13T00:52:22.111Z,10.82
2022-10-13T00:54:48.912Z,13.50
2022-10-13T00:57:15.643Z,14.65
2022-10-13T00:59:42.507Z,12.90
2022-10-13T01:02:09.278Z,12.90
2022-10-13T01:04:42.150Z,12.02
2022-10-13T01:07:08.671Z,11.40
2022-10-13T01:09:37.815Z,10.15
2022-10-13T01:12:22.792Z,10.55
2022-10-13T01:15:12.222Z,9.60
2022-10-13T01:17:58.142Z,10.82
2022-10-13T01:20:39.498Z,10.33
2022-10-13T01:23:21.137Z,10.32
2022-10-13T01:26:05.727Z,9.38
2022-10-13T01:29:09.869Z,10.77
2022-10-13T01:31:49.122Z,12.68
2022-10-13T01:34:22.961Z,12.70
2022-10-13T01:37:20.158Z,13.77
2022-10-13T01:39:54.179Z,9.80
2022-10-13T01:42:53.362Z,11.10
2022-10-13T01:45:22.222Z,10.35
2022-10-13T01:47:49.835Z,8.53
2022-10-13T01:50:17.276Z,11.77
2022-10-13T01:52:43.910Z,9.90
2022-10-13T01:55:12.219Z,8.85
2022-10-13T01:57:43.712Z,11.18
2022-10-13T02:00:19.716Z,10.13
2022-10-13T02:02:48.657Z,11.50
2022-10-13T02:05:26.502Z,9.98
2022-10-13T02:08:30.606Z,13.68
2022-10-13T02:11:17.107Z,10.68
2022-10-13T02:14:11.746Z,8.37
2022-10-13T02:16:43.748Z,7.20
2022-10-13T02:19:13.671Z,5.90
2022-10-13T02:21:41.287Z,7.97
2022-10-13T02:24:08.562Z,11.93
2022-10-13T02:26:35.581Z,7.93
2022-10-13T02:29:13.387Z,6.70
2022-10-13T02:31:40.298Z,6.80
2022-10-13T02:34:07.138Z,9.75
2022-10-13T02:36:34.243Z,6.80
2022-10-13T02:39:00.797Z,9.30
2022-10-13T02:41:27.231Z,8.23
2022-10-13T02:43:53.761Z,6.50
2022-10-13T02:46:20.178Z,7.10
2022-10-13T02:48:46.608Z,8.90
2022-10-13T02:51:13.072Z,8.83
2022-10-13T02:53:39.503Z,9.68
2022-10-13T02:56:06.540Z,9.65
2022-10-13T02:58:33.027Z,8.35
2022-10-13T03:01:11.269Z,10.82
2022-10-13T03:03:38.073Z,10.70
2022-10-13T03:06:04.821Z,10.68
2022-10-13T03:08:35.401Z,10.30
2022-10-13T03:11:01.973Z,7.80
2022-10-13T03:13:28.420Z,10.90
2022-10-13T03:15:54.860Z,7.23
2022-10-13T03:18:21.337Z,9.75
2022-10-13T03:20:59.547Z,7.03
2022-10-13T03:23:26.240Z,9.82
2022-10-13T03:25:53.005Z,9.32
2022-10-13T03:28:19.717Z,7.97
2022-10-13T03:30:46.339Z,9.45
2022-10-13T03:33:12.800Z,11.40
2022-10-13T03:35:39.345Z,6.97
2022-10-13T03:38:05.810Z,11.90
2022-10-13T03:40:32.275Z,8.00
2022-10-13T03:42:58.793Z,8.23
2022-10-13T03:45:25.326Z,8.27
2022-10-13T03:47:51.769Z,8.80
2022-10-13T03:50:18.285Z,10.10
2022-10-13T03:52:44.767Z,10.23
2022-10-13T03:55:11.205Z,9.77
2022-10-13T03:57:37.636Z,5.93
2022-10-13T04:00:04.655Z,8.70
2022-10-13T04:02:31.087Z,8.30
2022-10-13T04:04:57.618Z,8.30
2022-10-13T04:07:24.097Z,10.23
2022-10-13T04:09:50.562Z,7.32
2022-10-13T04:12:20.570Z,8.90
2022-10-13T04:14:47.662Z,8.77
2022-10-13T04:17:14.099Z,10.47
2022-10-13T04:19:41.597Z,17.27
2022-10-13T04:22:08.046Z,12.13
2022-10-13T04:24:34.487Z,8.70
2022-10-13T04:27:00.921Z,10.07
2022-10-13T04:29:27.381Z,10.87
2022-10-13T04:31:53.792Z,10.23
2022-10-13T04:34:20.725Z,9.45
2022-10-13T04:36:51.822Z,8.68
2022-10-13T04:39:18.619Z,7.30
2022-10-13T04:41:45.546Z,11.33
2022-10-13T04:44:12.149Z,12.23
2022-10-13T04:46:38.714Z,17.38
2022-10-13T04:49:05.151Z,19.85
2022-10-13T04:51:31.837Z,11.95
2022-10-13T04:54:01.046Z,12.43
2022-10-13T04:56:27.842Z,13.82
2022-10-13T04:58:54.879Z,11.20
2022-10-13T05:01:24.388Z,12.38
2022-10-13T05:03:55.697Z,11.38
2022-10-13T05:06:24.876Z,16.10
2022-10-13T05:08:51.493Z,15.23
2022-10-13T05:11:20.536Z,10.75
2022-10-13T05:13:47.914Z,18.75
2022-10-13T05:16:16.585Z,17.75
2022-10-13T05:18:43.049Z,19.50
2022-10-13T05:21:18.652Z,20.08
2022-10-13T05:23:45.911Z,18.70
2022-10-13T05:26:14.720Z,16.75
2022-10-13T05:28:41.276Z,19.48
2022-10-13T05:31:12.390Z,18.97
2022-10-13T05:33:39.367Z,21.08
2022-10-13T05:36:08.118Z,17.15
2022-10-13T05:38:34.566Z,22.42
2022-10-13T05:41:06.218Z,22.63
2022-10-13T05:43:33.237Z,19.33
2022-10-13T05:46:00.643Z,21.48
2022-10-13T05:48:27.703Z,22.75
2022-10-13T05:50:56.193Z,25.17
2022-10-13T05:53:24.503Z,18.38
2022-10-13T05:55:51.716Z,15.70
2022-10-13T05:58:18.430Z,16.55
2022-10-13T06:00:45.061Z,20.20
2022-10-13T06:03:17.338Z,19.63
2022-10-13T06:05:47.508Z,22.23
2022-10-13T06:08:14.886Z,21.77
2022-10-13T06:10:42.172Z,24.05
2022-10-13T06:13:09.390Z,28.10
2022-10-13T06:15:35.814Z,29.58
2022-10-13T06:18:02.255Z,32.83
2022-10-13T06:20:28.745Z,31.67
2022-10-13T06:22:55.967Z,31.85
2022-10-13T06:25:22.689Z,25.88
2022-10-13T06:27:49.165Z,26.30
2022-10-13T06:30:15.600Z,27.45
2022-10-13T06:32:42.513Z,33.77
2022-10-13T06:35:09.223Z,23.90
2022-10-13T06:37:35.635Z,25.77
2022-10-13T06:40:02.100Z,24.45
2022-10-13T06:42:31.764Z,20.50
2022-10-13T06:44:58.221Z,26.20
2022-10-13T06:47:24.657Z,23.08
2022-10-13T06:49:51.136Z,22.95
2022-10-13T06:52:17.845Z,21.67
2022-10-13T06:54:44.500Z,24.73
2022-10-13T06:57:12.356Z,21.63
2022-10-13T06:59:38.807Z,21.77
2022-10-13T07:02:05.390Z,19.27
2022-10-13T07:04:31.843Z,26.38
2022-10-13T07:06:58.264Z,21.30
2022-10-13T07:09:24.732Z,19.83
2022-10-13T07:11:51.644Z,24.08
2022-10-13T07:14:18.090Z,22.15
2022-10-13T07:16:44.546Z,19.23
2022-10-13T07:19:11.260Z,22.50
2022-10-13T07:21:38.067Z,20.07
2022-10-13T07:24:04.702Z,23.70
2022-10-13T07:26:33.863Z,24.70
2022-10-13T07:29:00.517Z,19.85
2022-10-13T07:31:27.267Z,22.80
2022-10-13T07:33:53.799Z,22.97
2022-10-13T07:36:20.262Z,26.52
2022-10-13T07:38:46.779Z,23.17
2022-10-13T07:41:14.102Z,21.38
2022-10-13T07:43:40.886Z,19.98
2022-10-13T07:46:08.608Z,20.40
2022-10-13T07:48:35.631Z,22.23
2022-10-13T07:51:06.590Z,20.98
2022-10-13T07:53:35.288Z,20.33
2022-10-13T07:56:02.801Z,23.05
2022-10-13T07:58:29.303Z,20.20
2022-10-13T08:00:57.381Z,18.73
2022-10-13T08:03:23.940Z,18.20
2022-10-13T08:05:50.366Z,12.75
2022-10-13T08:08:16.881Z,24.55
2022-10-13T08:10:43.482Z,20.23
2022-10-13T08:13:11.243Z,21.75
2022-10-13T08:15:44.436Z,17.23
2022-10-13T08:18:12.510Z,14.95
2022-10-13T08:20:43.900Z,16.00
2022-10-13T08:23:11.577Z,19.93
2022-10-13T08:25:39.103Z,18.27
2022-10-13T08:28:06.445Z,17.75
2022-10-13T08:30:33.607Z,19.58
2022-10-13T08:33:03.642Z,15.77
2022-10-13T08:35:34.095Z,14.30
2022-10-13T08:38:01.594Z,19.38
2022-10-13T08:40:28.194Z,15.95
2022-10-13T08:43:00.130Z,20.85
2022-10-13T08:45:40.957Z,16.95
2022-10-13T08:48:15.296Z,24.07
2022-10-13T08:50:43.331Z,15.77
2022-10-13T08:53:21.887Z,14.82
2022-10-13T08:55:51.520Z,16.05
2022-10-13T08:58:25.351Z,13.80
2022-10-13T09:01:00.453Z,15.70
2022-10-13T09:03:29.519Z,14.93
2022-10-13T09:06:15.852Z,9.95
2022-10-13T09:09:04.542Z,18.65
2022-10-13T09:11:34.058Z,15.35
2022-10-13T09:14:04.469Z,15.30
2022-10-13T09:16:40.514Z,17.25
2022-10-13T09:19:30.086Z,17.90
2022-10-13T09:21:58.878Z,16.48
2022-10-13T09:24:26.799Z,14.35
2022-10-13T09:27:14.594Z,13.40
2022-10-13T09:29:41.897Z,15.45
2022-10-13T09:32:15.594Z,13.80
2022-10-13T09:34:42.241Z,15.10
2022-10-13T09:37:25.642Z,13.68
2022-10-13T09:40:02.162Z,15.97
2022-10-13T09:42:31.722Z,12.30
2022-10-13T09:45:12.817Z,14.82
2022-10-13T09:47:39.274Z,9.57
2022-10-13T09:50:16.465Z,12.48
2022-10-13T09:52:44.739Z,14.30
2022-10-13T09:55:32.836Z,8.63
2022-10-13T09:58:22.026Z,12.55
2022-10-13T10:00:50.199Z,11.07
2022-10-13T10:03:24.351Z,10.25
2022-10-13T10:05:57.060Z,14.30
2022-10-13T10:08:50.961Z,13.05
2022-10-13T10:11:27.657Z,8.00
2022-10-13T10:13:55.784Z,9.20
2022-10-13T10:16:32.170Z,13.57
2022-10-13T10:19:29.119Z,9.10
2022-10-13T10:22:04.057Z,9.77
2022-10-13T10:24:35.445Z,11.18
2022-10-13T10:27:11.702Z,10.52
2022-10-13T10:29:47.175Z,10.88
2022-10-13T10:32:16.587Z,8.43
2022-10-13T10:34:58.302Z,10.98
2022-10-13T10:37:48.417Z,17.02
2022-10-13T10:40:27.068Z,8.00
2022-10-13T10:43:27.473Z,15.18
2022-10-13T10:45:57.029Z,8.37
2022-10-13T10:48:25.754Z,14.00
2022-10-13T10:50:53.069Z,11.63
2022-10-13T10:53:39.531Z,11.32
2022-10-13T10:56:44.953Z,10.43
2022-10-13T10:59:26.044Z,11.83
2022-10-13T11:02:08.574Z,7.50
2022-10-13T11:04:45.933Z,11.90
2022-10-13T11:07:24.547Z,9.63
2022-10-13T11:09:50.887Z,7.25
2022-10-13T11:12:20.635Z,8.40
2022-10-13T11:15:11.256Z,11.23
2022-10-13T11:17:39.120Z,9.82
2022-10-13T11:20:20.805Z,10.98
2022-10-13T11:22:59.363Z,8.70
2022-10-13T11:25:41.929Z,11.87
2022-10-13T11:28:20.705Z,12.02
2022-10-13T11:30:52.240Z,14.52
2022-10-13T11:33:40.726Z,8.93
2022-10-13T11:36:28.925Z,9.48
2022-10-13T11:39:17.536Z,9.43
2022-10-13T11:41:50.444Z,7.43
2022-10-13T11:44:22.177Z,6.97
2022-10-13T11:47:21.353Z,10.23
2022-10-13T11:49:57.004Z,12.82
2022-10-13T11:52:36.472Z,14.20
2022-10-13T11:55:11.622Z,13.48
2022-10-13T11:57:38.215Z,13.48
2022-10-13T12:00:05.560Z,9.90
2022-10-13T12:02:32.086Z,16.45
2022-10-13T12:05:22.995Z,12.67
2022-10-13T12:07:50.565Z,11.68
2022-10-13T12:10:25.331Z,9.02
2022-10-13T12:12:51.915Z,11.73
2022-10-13T12:15:40.118Z,7.38
2022-10-13T12:18:27.816Z,11.23
2022-10-13T12:20:56.071Z,8.40
2022-10-13T12:23:23.044Z,22.45
2022-10-13T12:25:56.810Z,10.85
2022-10-13T12:28:25.935Z,12.32
2022-10-13T12:30:54.871Z,15.13
2022-10-13T12:33:33.025Z,8.57
2022-10-13T12:36:13.680Z,9.93
2022-10-13T12:38:46.181Z,13.25
2022-10-13T12:41:25.163Z,10.23
2022-10-13T12:43:52.607Z,10.33
2022-10-13T12:46:38.883Z,11.57
2022-10-13T12:49:07.134Z,14.52
2022-10-13T12:51:35.497Z,12.27
2022-10-13T12:54:12.285Z,14.77
2022-10-13T12:56:42.656Z,10.10
2022-10-13T12:59:16.693Z,10.65
2022-10-13T13:01:43.667Z,6.95
2022-10-13T13:04:22.309Z,9.75
2022-10-13T13:06:57.281Z,13.23
2022-10-13T13:09:25.954Z,11.33
2022-10-13T13:12:10.780Z,10.02
2022-10-13T13:14:42.794Z,8.63
2022-10-13T13:17:17.506Z,9.00
2022-10-13T13:19:55.475Z,10.40
2022-10-13T13:22:22.317Z,6.80
2022-10-13T13:24:52.344Z,10.60
2022-10-13T13:27:26.594Z,11.68
2022-10-13T13:29:54.612Z,11.40
2022-10-13T13:32:22.991Z,12.98
2022-10-13T13:34:49.610Z,11.23
2022-10-13T13:37:28.802Z,15.85
2022-10-13T13:39:55.682Z,10.43
2022-10-13T13:42:22.234Z,14.48
2022-10-13T13:44:48.738Z,11.68
2022-10-13T13:47:23.945Z,9.40
2022-10-13T13:49:51.712Z,13.73
2022-10-13T13:52:18.411Z,14.15
2022-10-13T13:54:45.156Z,21.30
2022-10-13T13:57:12.836Z,13.35
2022-10-13T13:59:40.223Z,11.80
2022-10-13T14:02:10.391Z,11.52
2022-10-13T14:04:36.880Z,11.25
2022-10-13T14:07:03.350Z,9.82
2022-10-13T14:09:30.108Z,13.80
2022-10-13T14:11:56.615Z,11.20
2022-10-13T14:14:23.066Z,13.13
2022-10-13T14:16:49.575Z,15.02
2022-10-13T14:19:16.312Z,15.27
2022-10-13T14:21:42.897Z,15.38
2022-10-13T14:24:10.214Z,12.83
2022-10-13T14:26:36.716Z,16.27
2022-10-13T14:29:04.191Z,11.00
2022-10-13T14:31:30.796Z,13.52
2022-10-13T14:33:57.224Z,7.63
2022-10-13T14:36:23.810Z,14.27
2022-10-13T14:38:51.419Z,14.00
2022-10-13T14:41:18.282Z,9.85
2022-10-13T14:43:44.714Z,13.40
2022-10-13T14:46:12.646Z,13.40
2022-10-13T14:48:39.288Z,13.77
2022-10-13T14:51:06.542Z,15.20
2022-10-13T14:53:37.500Z,14.23
2022-10-13T14:56:16.024Z,16.45
2022-10-13T14:58:42.485Z,16.40
2022-10-13T15:01:09.005Z,16.33
2022-10-13T15:03:35.928Z,13.25
2022-10-13T15:06:02.491Z,15.38
2022-10-13T15:08:28.939Z,16.85
2022-10-13T15:11:02.202Z,13.18
2022-10-13T15:13:29.030Z,16.17
2022-10-13T15:15:56.854Z,12.45
2022-10-13T15:18:27.070Z,18.25
2022-10-13T15:20:55.731Z,15.13
2022-10-13T15:23:22.315Z,15.57
2022-10-13T15:25:57.439Z,19.37
2022-10-13T15:28:25.971Z,11.95
2022-10-13T15:30:52.640Z,14.00
2022-10-13T15:33:19.677Z,10.13
2022-10-13T15:35:50.053Z,13.10
2022-10-13T15:38:17.998Z,16.30
2022-10-13T15:40:44.627Z,12.52
2022-10-13T15:43:11.221Z,12.02
2022-10-13T15:45:38.160Z,17.40
2022-10-13T15:48:08.674Z,12.45
2022-10-13T15:50:38.733Z,12.33
2022-10-13T15:53:05.276Z,11.35
2022-10-13T15:55:32.451Z,19.83
2022-10-13T15:57:59.517Z,11.85
2022-10-13T16:00:26.013Z,14.25
2022-10-13T16:02:52.557Z,15.80
2022-10-13T16:05:19.234Z,18.23
2022-10-13T16:07:45.926Z,11.60
2022-10-13T16:10:13.856Z,11.73
2022-10-13T16:12:42.487Z,12.75
2022-10-13T16:15:12.117Z,11.80
2022-10-13T16:17:38.763Z,12.88
2022-10-13T16:20:06.185Z,16.33
2022-10-13T16:22:32.643Z,12.93
2022-10-13T16:24:59.122Z,13.07
2022-10-13T16:27:25.728Z,12.70
2022-10-13T16:29:52.164Z,15.15
2022-10-13T16:32:20.863Z,15.35
2022-10-13T16:34:48.304Z,12.88
2022-10-13T16:37:14.773Z,14.90
2022-10-13T16:39:43.214Z,14.00
2022-10-13T16:42:12.050Z,14.02
2022-10-13T16:44:39.783Z,14.43
2022-10-13T16:47:06.499Z,13.18
2022-10-13T16:49:33.777Z,13.45
2022-10-13T16:52:00.487Z,21.47
2022-10-13T16:54:26.978Z,15.75
2022-10-13T16:56:53.419Z,14.15
2022-10-13T16:59:20.000Z,15.38
2022-10-13T17:01:47.316Z,12.27
2022-10-13T17:04:17.253Z,12.83
2022-10-13T17:06:47.692Z,13.45
2022-10-13T17:09:14.151Z,14.82
2022-10-13T17:11:40.704Z,14.15
2022-10-13T17:14:07.284Z,13.50
2022-10-13T17:16:33.906Z,11.07
2022-10-13T17:19:00.697Z,13.73
2022-10-13T17:21:27.143Z,18.13
2022-10-13T17:23:55.185Z,14.23
2022-10-13T17:26:21.641Z,15.55
2022-10-13T17:28:48.328Z,11.67
2022-10-13T17:31:20.840Z,15.63
2022-10-13T17:33:47.918Z,15.60
2022-10-13T17:36:20.471Z,19.65
2022-10-13T17:38:48.077Z,19.60
2022-10-13T17:41:15.188Z,15.37
2022-10-13T17:43:42.454Z,16.40
2022-10-13T17:49:02.839Z,16.77
2022-10-13T17:51:29.372Z,19.67
2022-10-13T17:53:58.496Z,16.33
2022-10-13T17:56:25.214Z,21.23
2022-10-13T17:58:52.340Z,19.05
2022-10-13T18:01:33.840Z,18.15
2022-10-13T18:04:06.314Z,24.05
2022-10-13T18:06:38.508Z,18.73
2022-10-13T18:09:14.345Z,21.90
2022-10-13T18:11:44.430Z,25.38
2022-10-13T18:14:15.549Z,22.23
2022-10-13T18:16:45.839Z,19.17
2022-10-13T18:19:12.638Z,20.23
2022-10-13T18:21:39.403Z,20.10
2022-10-13T18:24:06.111Z,20.48
2022-10-13T18:26:35.675Z,20.17
2022-10-13T18:29:02.744Z,19.40
2022-10-13T18:31:31.983Z,16.17
2022-10-13T18:34:00.299Z,17.33
2022-10-13T18:36:29.452Z,18.90
2022-10-13T18:39:01.470Z,19.05
2022-10-13T18:41:27.940Z,22.08
2022-10-13T18:43:55.028Z,18.87
2022-10-13T18:46:21.463Z,22.42
2022-10-13T18:48:47.977Z,19.52
2022-10-13T18:51:16.008Z,18.92
2022-10-13T18:53:44.052Z,20.95
2022-10-13T18:56:14.415Z,19.27
2022-10-13T18:58:41.343Z,21.42
2022-10-13T19:01:10.216Z,18.92
2022-10-13T19:03:38.100Z,20.98
2022-10-13T19:06:06.401Z,22.35
2022-10-13T19:08:33.262Z,22.30
2022-10-13T19:10:59.723Z,19.83
2022-10-13T19:13:27.768Z,22.75
2022-10-13T19:16:01.099Z,16.67
2022-10-13T19:18:27.851Z,20.10
2022-10-13T19:20:54.329Z,19.67
2022-10-13T19:23:21.916Z,18.75
2022-10-13T19:25:49.593Z,19.52
2022-10-13T19:28:23.356Z,21.17
2022-10-13T19:30:50.947Z,19.45
2022-10-13T19:33:18.597Z,18.13
2022-10-13T19:35:47.881Z,18.48
2022-10-13T19:38:15.202Z,22.25
2022-10-13T19:40:49.530Z,22.45
2022-10-13T19:43:17.106Z,21.63
2022-10-13T19:45:59.598Z,17.83
2022-10-13T19:48:26.762Z,16.42
2022-10-13T19:50:53.226Z,19.67
2022-10-13T19:53:19.792Z,21.45
2022-10-13T19:55:47.843Z,18.42
2022-10-13T19:58:16.134Z,18.77
2022-10-13T20:00:43.553Z,22.30
2022-10-13T20:03:10.051Z,17.02
2022-10-13T20:05:40.977Z,19.98
2022-10-13T20:08:08.414Z,19.23
2022-10-13T20:10:39.126Z,19.60
2022-10-13T20:13:06.215Z,18.00
2022-10-13T20:15:32.877Z,16.52
2022-10-13T20:17:59.701Z,18.55
2022-10-13T20:20:26.301Z,16.40
2022-10-13T20:22:52.827Z,16.67
2022-10-13T20:25:19.984Z,23.05
2022-10-13T20:27:46.939Z,23.05
2022-10-13T20:30:14.685Z,19.35
2022-10-13T20:32:41.240Z,16.90
2022-10-13T20:35:07.951Z,18.93
2022-10-13T20:37:34.478Z,21.90
2022-10-13T20:40:01.091Z,17.58
2022-10-13T20:42:27.519Z,20.83
2022-10-13T20:44:54.100Z,17.58
2022-10-13T20:47:23.453Z,21.50
2022-10-13T20:49:52.207Z,19.38
2022-10-13T20:52:19.016Z,19.52
2022-10-13T20:54:45.452Z,22.20
2022-10-13T20:57:11.972Z,18.75
2022-10-13T20:59:38.668Z,22.53
2022-10-13T21:02:05.196Z,20.05
2022-10-13T21:04:31.638Z,20.63
2022-10-13T21:06:58.406Z,16.83
2022-10-13T21:09:24.830Z,18.27
2022-10-13T21:11:51.254Z,24.20
2022-10-13T21:14:17.842Z,22.08
2022-10-13T21:16:47.561Z,24.88
2022-10-13T21:19:15.000Z,21.10
2022-10-13T21:21:41.459Z,19.98
2022-10-13T21:24:08.312Z,24.93
2022-10-13T21:26:35.039Z,20.05
2022-10-13T21:29:04.079Z,22.80
2022-10-13T21:31:30.665Z,22.63
2022-10-13T21:33:57.829Z,26.55
2022-10-13T21:36:28.539Z,23.53
2022-10-13T21:38:59.484Z,24.52
2022-10-13T21:41:27.104Z,25.15
2022-10-13T21:43:54.065Z,24.70
2022-10-13T21:46:26.729Z,22.85
2022-10-13T21:48:55.139Z,19.13
2022-10-13T21:51:29.399Z,19.70
2022-10-13T21:53:58.254Z,19.25
2022-10-13T21:56:26.146Z,22.33
2022-10-13T21:58:52.929Z,24.63
2022-10-13T22:01:20.104Z,24.43
2022-10-13T22:03:47.448Z,25.55
2022-10-13T22:06:18.958Z,22.13
2022-10-13T22:08:47.631Z,19.92
2022-10-13T22:11:14.864Z,23.58
2022-10-13T22:13:41.358Z,21.10
2022-10-13T22:16:29.095Z,23.55
2022-10-13T22:18:57.094Z,19.65
2022-10-13T22:21:28.894Z,23.42
2022-10-13T22:24:00.351Z,22.00
2022-10-13T22:26:29.406Z,25.10
2022-10-13T22:29:00.894Z,26.23
2022-10-13T22:31:28.108Z,20.50
2022-10-13T22:33:56.806Z,18.95
2022-10-13T22:36:24.830Z,20.25
2022-10-13T22:38:52.936Z,20.27
2022-10-13T22:41:20.041Z,20.60
2022-10-13T22:43:54.574Z,17.77
2022-10-13T22:46:25.311Z,20.77
2022-10-13T22:48:51.784Z,19.63
2022-10-13T22:51:20.431Z,20.37
2022-10-13T22:53:47.580Z,17.63
2022-10-13T22:56:26.456Z,17.38
2022-10-13T22:58:54.741Z,18.52
2022-10-13T23:01:21.973Z,17.27
2022-10-13T23:03:49.966Z,20.70
2022-10-13T23:06:18.223Z,20.85
2022-10-13T23:08:44.939Z,18.15
2022-10-13T23:11:11.845Z,20.77
2022-10-13T23:13:38.274Z,20.90
2022-10-13T23:16:08.243Z,20.07
2022-10-13T23:18:34.918Z,21.52
2022-10-13T23:21:08.720Z,21.85
2022-10-13T23:23:35.184Z,22.13
2022-10-13T23:26:12.792Z,23.30
2022-10-13T23:28:57.935Z,19.77
2022-10-13T23:31:25.540Z,22.10
2022-10-13T23:33:52.929Z,24.08
2022-10-13T23:36:22.124Z,20.77
2022-10-13T23:38:48.779Z,23.75
2022-10-13T23:41:16.297Z,22.87
2022-10-13T23:43:43.462Z,27.05
2022-10-13T23:46:10.706Z,24.25
2022-10-13T23:48:38.035Z,23.00
2022-10-13T23:51:12.787Z,28.08
2022-10-13T23:53:39.574Z,23.90
2022-10-13T23:56:07.547Z,26.50
2022-10-13T23:58:38.214Z,24.50
